Trail Creek, Indiana
Current Conditions -  °F | °C
As of 8:15 PM on Monday 22 Dec 2014 (Local Time) from KMGC Reporting Station
Haze Haze  
Wind Chill: 30°   Ceiling: 800
Heat Index: 37°   Visibility: 5mi
Dew Point: 36°   Wind: 10mph
Humidity: 93%   Direction: 120°ESE
Pressure: 29.71"   Gusts: NA
Location:  41.687°N, 86.8677°W
Report Text: KMGC 230215Z AUTO 12009KT 090V150 5SM BR BKN008 OVC024 03/02 A2971 RMK AO2
Loading
Personal Weather Stations






























Interactive Weather Map New forecast layout! Learn more

10-Day Weather Forecast

Advertisements
Track Severe Weather on mobile